Time;durP1;ratioP1;P1;durP2;ratioP2;P2;SDS_P1;SDS_P2;PMS_P1;PMS_P2;Temp;Humidity;BMP_temperature;BMP_pressure;BME280_temperature;BME280_humidity;BME280_pressure;Samples;Min_cycle;Max_cycle;Signal;HPM_P1;HPM_P2
2021/07/16 00:02:14;;;;;;;114.10;57.45;;;17.80;99.90;;;;;;4951631;28;20110;-77
2021/07/16 00:04:41;;;;;;;108.60;56.28;;;17.70;99.90;;;;;;4951894;28;20059;-79
2021/07/16 00:07:11;;;;;;;109.65;56.53;;;17.50;99.90;;;;;;4952485;28;20059;-78
2021/07/16 00:09:38;;;;;;;102.53;55.58;;;17.40;99.90;;;;;;4950408;28;20054;-79
2021/07/16 00:12:05;;;;;;;110.75;55.47;;;17.40;99.90;;;;;;4958858;28;20106;-79
2021/07/16 00:14:32;;;;;;;110.10;56.08;;;17.30;99.90;;;;;;4935278;28;20049;-78
2021/07/16 00:17:00;;;;;;;109.95;58.40;;;17.20;99.90;;;;;;4937835;28;20114;-78
2021/07/16 00:19:27;;;;;;;118.13;57.50;;;17.20;99.90;;;;;;4933387;29;20162;-77
2021/07/16 00:21:55;;;;;;;116.43;58.03;;;17.30;99.90;;;;;;4932328;28;20405;-78
2021/07/16 00:24:22;;;;;;;115.55;56.10;;;17.20;99.90;;;;;;4933085;29;20644;-78
2021/07/16 00:26:49;;;;;;;124.40;61.78;;;17.20;99.90;;;;;;4916849;28;20110;-78
2021/07/16 00:29:17;;;;;;;115.75;58.50;;;17.30;99.90;;;;;;4955621;28;20483;-78
2021/07/16 00:31:43;;;;;;;124.40;61.92;;;17.40;99.90;;;;;;4935580;28;20055;-78
2021/07/16 00:34:11;;;;;;;127.00;62.38;;;17.30;99.90;;;;;;4952432;28;20070;-78
2021/07/16 00:36:37;;;;;;;118.22;60.78;;;17.20;99.90;;;;;;4935730;28;20057;-78
2021/07/16 00:39:04;;;;;;;118.60;59.55;;;17.20;99.90;;;;;;4950267;28;20038;-79
2021/07/16 00:41:31;;;;;;;110.15;58.63;;;17.10;99.90;;;;;;4949973;28;20074;-79
2021/07/16 00:43:58;;;;;;;107.25;54.90;;;17.30;99.90;;;;;;4946780;28;20047;-78
2021/07/16 00:46:25;;;;;;;105.35;54.60;;;17.20;99.90;;;;;;4947926;28;20480;-79
2021/07/16 00:48:52;;;;;;;105.47;57.40;;;17.20;99.90;;;;;;4948615;28;20444;-79
2021/07/16 00:51:19;;;;;;;108.82;56.75;;;17.10;99.90;;;;;;4941533;28;20042;-78
2021/07/16 00:53:46;;;;;;;108.93;56.03;;;17.10;99.90;;;;;;4943809;28;20139;-79
2021/07/16 00:56:13;;;;;;;123.38;58.03;;;17.10;99.90;;;;;;4935236;28;20097;-78
2021/07/16 00:58:40;;;;;;;114.90;55.58;;;17.00;99.90;;;;;;4968148;28;20066;-80
2021/07/16 01:01:07;;;;;;;111.90;54.50;;;17.00;99.90;;;;;;4934112;28;20130;-80
2021/07/16 01:03:35;;;;;;;118.28;57.20;;;17.10;99.90;;;;;;4951926;28;20216;-79
2021/07/16 01:06:02;;;;;;;115.03;57.30;;;16.90;99.90;;;;;;4950889;28;20504;-79
2021/07/16 01:08:30;;;;;;;126.60;60.47;;;16.90;99.90;;;;;;4967134;28;20090;-79
2021/07/16 01:10:57;;;;;;;116.13;55.75;;;17.00;99.90;;;;;;4946767;28;20158;-78
2021/07/16 01:13:24;;;;;;;112.93;56.83;;;17.00;99.90;;;;;;4964756;28;20563;-77
2021/07/16 01:15:51;;;;;;;103.15;53.35;;;17.00;99.90;;;;;;4943791;28;20054;-77
2021/07/16 01:18:19;;;;;;;105.13;54.05;;;17.00;99.90;;;;;;4931613;29;20061;-76
2021/07/16 01:20:46;;;;;;;110.10;56.47;;;17.10;99.90;;;;;;4935549;28;20046;-78
2021/07/16 01:23:24;;;;;;;99.57;53.92;;;17.10;99.90;;;;;;4947648;28;20055;-79
2021/07/16 01:25:52;;;;;;;115.07;54.28;;;17.20;99.90;;;;;;4947002;28;20397;-79
2021/07/16 01:28:19;;;;;;;90.78;49.95;;;17.10;99.90;;;;;;4947239;28;20114;-78
2021/07/16 01:30:51;;;;;;;98.03;51.88;;;17.20;99.90;;;;;;4932143;28;20655;-77
2021/07/16 01:33:19;;;;;;;96.13;50.53;;;17.10;99.90;;;;;;4946034;29;20059;-79
2021/07/16 01:35:46;;;;;;;88.78;50.78;;;17.10;99.90;;;;;;4946423;28;20264;-79
2021/07/16 01:38:13;;;;;;;98.80;48.33;;;16.90;99.90;;;;;;4931528;29;20074;-79
2021/07/16 01:40:40;;;;;;;93.63;49.13;;;16.90;99.90;;;;;;4954719;28;20066;-79
2021/07/16 01:43:09;;;;;;;77.65;44.58;;;16.90;99.90;;;;;;4965452;28;20495;-79
2021/07/16 01:45:39;;;;;;;85.82;46.30;;;16.80;99.90;;;;;;4934251;28;20062;-79
2021/07/16 01:48:15;;;;;;;84.75;45.47;;;16.80;99.90;;;;;;4921412;29;20531;-79
2021/07/16 01:50:44;;;;;;;76.47;44.03;;;16.80;99.90;;;;;;4915019;29;20169;-79
2021/07/16 01:53:13;;;;;;;90.45;46.17;;;16.90;99.90;;;;;;4962059;28;20042;-79
2021/07/16 01:55:41;;;;;;;71.90;43.22;;;16.80;99.90;;;;;;4950215;28;20114;-79
2021/07/16 01:58:11;;;;;;;73.90;42.58;;;16.80;99.90;;;;;;4950654;28;20093;-79
2021/07/16 02:00:47;;;;;;;86.38;43.70;;;16.90;99.90;;;;;;4965030;28;20082;-79
2021/07/16 02:03:16;;;;;;;90.78;46.03;;;16.80;99.90;;;;;;4937132;28;20051;-80
2021/07/16 02:05:45;;;;;;;85.45;45.10;;;16.70;99.90;;;;;;4943130;28;20557;-77
2021/07/16 02:08:21;;;;;;;91.85;49.15;;;16.70;99.90;;;;;;4967491;28;20180;-79
2021/07/16 02:10:53;;;;;;;81.47;45.05;;;16.80;99.90;;;;;;4960469;28;20047;-79
2021/07/16 02:13:21;;;;;;;97.72;47.90;;;16.80;99.90;;;;;;4962092;28;20154;-79
2021/07/16 02:15:50;;;;;;;90.22;47.22;;;16.70;99.90;;;;;;4960460;28;20051;-79
2021/07/16 02:18:18;;;;;;;99.07;48.83;;;16.80;99.90;;;;;;4930069;29;20055;-77
2021/07/16 02:20:46;;;;;;;87.20;44.67;;;16.80;99.90;;;;;;4929993;29;20568;-80
2021/07/16 02:23:17;;;;;;;90.60;46.08;;;16.80;99.90;;;;;;4952829;28;20047;-78
2021/07/16 02:25:45;;;;;;;88.45;45.85;;;16.80;99.90;;;;;;4948562;28;20057;-79
2021/07/16 02:28:21;;;;;;;90.88;46.13;;;16.90;99.90;;;;;;4967070;28;20113;-79
2021/07/16 02:30:49;;;;;;;87.43;44.60;;;16.70;99.90;;;;;;4950241;28;20599;-79
2021/07/16 02:33:16;;;;;;;92.25;46.60;;;16.70;99.90;;;;;;4961380;28;20264;-77
2021/07/16 02:35:46;;;;;;;103.78;46.40;;;16.80;99.90;;;;;;4929426;29;20083;-79
2021/07/16 02:38:14;;;;;;;88.93;45.50;;;16.80;99.90;;;;;;4929841;28;20590;-79
2021/07/16 02:40:41;;;;;;;90.30;46.15;;;16.90;99.90;;;;;;4937957;28;20537;-79
2021/07/16 02:43:09;;;;;;;83.47;44.10;;;16.90;99.90;;;;;;4932460;28;20271;-80
2021/07/16 02:45:36;;;;;;;88.43;43.08;;;16.70;99.90;;;;;;4947806;28;20047;-79
2021/07/16 02:48:04;;;;;;;92.22;44.47;;;16.60;99.90;;;;;;4930047;29;20055;-79
2021/07/16 02:50:34;;;;;;;80.60;42.38;;;16.60;99.90;;;;;;4945879;28;20055;-78
2021/07/16 02:53:05;;;;;;;87.25;44.85;;;16.50;99.90;;;;;;4946084;28;20502;-79
2021/07/16 02:55:33;;;;;;;100.53;46.60;;;16.50;99.90;;;;;;4929941;29;20134;-79
2021/07/16 02:58:00;;;;;;;96.00;43.47;;;16.50;99.90;;;;;;4946151;28;20075;-78
2021/07/16 03:00:29;;;;;;;94.30;44.03;;;16.50;99.90;;;;;;4946343;28;20077;-79
2021/07/16 03:02:58;;;;;;;76.45;41.90;;;16.40;99.90;;;;;;4946372;29;20059;-79
2021/07/16 03:05:28;;;;;;;86.38;42.38;;;16.50;99.90;;;;;;4941557;28;20061;-78
2021/07/16 03:07:56;;;;;;;81.32;42.90;;;16.50;99.90;;;;;;4965347;28;20113;-79
2021/07/16 03:10:26;;;;;;;87.95;40.53;;;16.40;99.90;;;;;;4947626;28;20055;-79
2021/07/16 03:12:55;;;;;;;78.95;39.00;;;16.40;99.90;;;;;;4964059;28;20582;-78
2021/07/16 03:15:23;;;;;;;90.38;42.72;;;16.40;99.90;;;;;;4936327;28;20531;-79
2021/07/16 03:17:51;;;;;;;74.63;40.30;;;16.50;99.90;;;;;;4930902;28;20048;-79
2021/07/16 03:20:23;;;;;;;73.30;41.55;;;16.50;99.90;;;;;;4930070;28;20067;-80
2021/07/16 03:22:52;;;;;;;76.32;41.13;;;16.50;99.90;;;;;;4930494;29;20043;-80
2021/07/16 03:25:20;;;;;;;73.00;38.97;;;16.50;99.90;;;;;;4932510;28;20706;-79
2021/07/16 03:27:47;;;;;;;78.38;39.63;;;16.40;99.90;;;;;;4947824;28;20051;-79
2021/07/16 03:30:17;;;;;;;86.05;39.88;;;16.40;99.90;;;;;;4948155;28;20057;-79
2021/07/16 03:32:44;;;;;;;84.18;39.45;;;16.30;99.90;;;;;;4947718;28;20129;-79
2021/07/16 03:35:12;;;;;;;75.72;39.33;;;16.40;99.90;;;;;;4932466;28;20066;-78
2021/07/16 03:37:40;;;;;;;70.28;38.42;;;16.40;99.90;;;;;;4949301;28;20149;-78
2021/07/16 03:40:10;;;;;;;74.07;39.05;;;16.40;99.90;;;;;;4965034;28;20522;-78
2021/07/16 03:42:38;;;;;;;61.45;36.85;;;16.40;99.90;;;;;;4947539;28;20057;-79
2021/07/16 03:45:07;;;;;;;73.35;38.90;;;16.40;99.90;;;;;;4935854;28;20384;-79
2021/07/16 03:47:34;;;;;;;80.70;38.92;;;16.30;99.90;;;;;;4927795;28;20134;-79
2021/07/16 03:50:01;;;;;;;69.80;37.60;;;16.30;99.90;;;;;;4945423;28;20058;-79
2021/07/16 03:52:28;;;;;;;77.03;37.55;;;16.30;99.90;;;;;;4929224;29;20412;-78
2021/07/16 03:54:55;;;;;;;66.22;36.03;;;16.40;99.90;;;;;;4946676;28;20110;-79
2021/07/16 03:57:21;;;;;;;59.60;34.92;;;16.50;99.90;;;;;;4947117;28;20129;-79
2021/07/16 03:59:49;;;;;;;61.50;36.72;;;16.40;99.90;;;;;;4948988;28;20046;-78
2021/07/16 04:02:15;;;;;;;68.18;38.03;;;16.40;99.90;;;;;;4951900;28;20048;-79
2021/07/16 04:04:44;;;;;;;73.03;37.17;;;16.40;99.90;;;;;;4929468;29;20048;-79
2021/07/16 04:07:17;;;;;;;76.55;39.10;;;16.30;99.90;;;;;;4955175;28;20069;-78
2021/07/16 04:09:44;;;;;;;69.47;37.08;;;16.30;99.90;;;;;;4931767;28;20055;-78
2021/07/16 04:12:20;;;;;;;68.78;36.38;;;16.30;99.90;;;;;;4930793;28;20039;-78
2021/07/16 04:14:50;;;;;;;50.22;27.92;;;16.20;99.90;;;;;;4931677;28;20182;-78
2021/07/16 04:17:25;;;;;;;48.60;27.60;;;16.10;99.90;;;;;;4930792;28;20555;-78
2021/07/16 04:19:53;;;;;;;43.47;26.88;;;16.10;99.90;;;;;;4928125;28;20055;-78
2021/07/16 04:22:23;;;;;;;44.97;25.88;;;16.10;99.90;;;;;;4945195;28;20480;-78
2021/07/16 04:24:51;;;;;;;33.70;20.85;;;16.10;99.90;;;;;;4947460;28;20661;-78
2021/07/16 04:27:19;;;;;;;31.48;22.80;;;16.00;99.90;;;;;;4947974;28;20058;-78
2021/07/16 04:29:46;;;;;;;30.45;19.95;;;16.10;99.90;;;;;;4935451;28;20049;-78
2021/07/16 04:32:14;;;;;;;29.48;21.38;;;16.00;99.90;;;;;;4966748;28;20055;-78
2021/07/16 04:34:42;;;;;;;33.53;22.70;;;16.00;99.90;;;;;;4915940;29;20107;-78
2021/07/16 04:37:10;;;;;;;36.97;23.30;;;16.10;99.90;;;;;;4934730;28;20047;-79
2021/07/16 04:39:38;;;;;;;37.38;24.20;;;16.20;99.90;;;;;;4966658;28;20447;-78
2021/07/16 04:42:05;;;;;;;46.17;26.20;;;16.20;99.90;;;;;;4950561;28;20051;-79
2021/07/16 04:44:33;;;;;;;47.13;27.70;;;16.10;99.90;;;;;;4942413;29;20051;-80
2021/07/16 04:47:01;;;;;;;53.72;28.13;;;16.10;99.90;;;;;;4946596;28;20384;-79
2021/07/16 04:49:28;;;;;;;49.15;28.83;;;16.10;99.90;;;;;;4950650;28;20138;-79
2021/07/16 04:51:55;;;;;;;53.40;29.92;;;16.20;99.90;;;;;;4931420;29;20534;-79
2021/07/16 04:54:23;;;;;;;54.55;30.17;;;16.10;99.90;;;;;;4930622;28;20066;-79
2021/07/16 04:56:50;;;;;;;59.55;29.58;;;16.10;99.90;;;;;;4948233;28;20082;-78
2021/07/16 04:59:17;;;;;;;54.45;30.50;;;16.00;99.90;;;;;;4949919;28;20164;-79
2021/07/16 05:01:44;;;;;;;46.15;26.77;;;16.00;99.90;;;;;;4950753;28;20076;-78
2021/07/16 05:04:13;;;;;;;49.30;28.45;;;15.90;99.90;;;;;;4966521;28;20054;-78
2021/07/16 05:06:40;;;;;;;49.08;28.27;;;15.80;99.90;;;;;;4944683;28;20058;-79
2021/07/16 05:09:07;;;;;;;52.60;29.08;;;15.90;99.90;;;;;;4948660;28;20046;-79
2021/07/16 05:11:34;;;;;;;58.10;30.83;;;15.90;99.90;;;;;;4949755;28;20534;-78
2021/07/16 05:14:01;;;;;;;80.45;29.10;;;15.80;99.90;;;;;;4964167;28;20071;-79
2021/07/16 05:16:29;;;;;;;52.63;28.85;;;15.70;99.90;;;;;;4938887;28;20035;-79
2021/07/16 05:18:56;;;;;;;50.15;29.33;;;15.70;99.90;;;;;;4935600;28;20047;-79
2021/07/16 05:21:23;;;;;;;52.10;29.10;;;15.80;99.90;;;;;;4965154;28;20051;-79
2021/07/16 05:23:50;;;;;;;59.25;28.73;;;15.90;99.90;;;;;;4926619;28;20068;-79
2021/07/16 05:26:16;;;;;;;56.20;28.08;;;15.90;99.90;;;;;;4959877;28;20057;-79
2021/07/16 05:28:45;;;;;;;55.83;28.08;;;15.80;99.90;;;;;;4964899;28;20046;-79
2021/07/16 05:31:12;;;;;;;49.72;27.85;;;15.70;99.90;;;;;;4950464;28;20054;-79
2021/07/16 05:33:39;;;;;;;52.45;28.42;;;15.80;99.90;;;;;;4941102;28;20499;-78
2021/07/16 05:36:06;;;;;;;56.85;29.13;;;15.90;99.90;;;;;;4929501;28;20097;-78
2021/07/16 05:38:34;;;;;;;49.75;28.10;;;15.90;99.90;;;;;;4945493;29;20050;-79
2021/07/16 05:41:01;;;;;;;56.25;29.20;;;15.80;99.90;;;;;;4945855;28;20085;-79
2021/07/16 05:43:28;;;;;;;47.35;27.65;;;15.80;99.90;;;;;;4948725;28;20058;-78
2021/07/16 05:45:55;;;;;;;48.28;27.58;;;15.70;99.90;;;;;;4932128;28;20090;-78
2021/07/16 05:48:22;;;;;;;46.92;25.67;;;15.80;99.90;;;;;;4929398;28;20050;-78
2021/07/16 05:50:49;;;;;;;47.83;25.30;;;15.80;99.90;;;;;;4944043;28;20090;-79
2021/07/16 05:53:17;;;;;;;40.80;26.35;;;15.80;99.90;;;;;;4930566;28;20055;-79
2021/07/16 05:55:45;;;;;;;39.50;25.35;;;15.80;99.90;;;;;;4924685;28;20074;-79
2021/07/16 05:58:12;;;;;;;44.80;25.10;;;15.90;99.90;;;;;;4963876;28;20055;-79
2021/07/16 06:00:39;;;;;;;34.50;21.52;;;15.80;99.90;;;;;;4956273;28;20062;-79
2021/07/16 06:03:06;;;;;;;38.83;23.83;;;15.80;99.90;;;;;;4929725;28;20369;-79
2021/07/16 06:05:33;;;;;;;36.05;23.10;;;15.70;99.90;;;;;;4943650;28;20055;-79
2021/07/16 06:08:02;;;;;;;41.22;22.42;;;15.80;99.90;;;;;;4930556;28;20086;-80
2021/07/16 06:10:29;;;;;;;33.63;20.70;;;15.80;99.90;;;;;;4944114;28;20051;-80
2021/07/16 06:12:57;;;;;;;43.03;24.58;;;15.90;99.90;;;;;;4944865;28;20043;-79
2021/07/16 06:15:24;;;;;;;41.30;22.63;;;15.80;99.90;;;;;;4926892;28;20047;-78
2021/07/16 06:17:52;;;;;;;37.97;23.73;;;15.90;99.90;;;;;;4928429;28;20118;-79
2021/07/16 06:20:19;;;;;;;40.53;23.48;;;15.90;99.90;;;;;;4928711;28;20047;-79
2021/07/16 06:22:46;;;;;;;41.95;23.58;;;15.90;99.90;;;;;;4929561;29;20035;-78
2021/07/16 06:25:14;;;;;;;42.28;24.75;;;15.90;99.90;;;;;;4931698;28;20042;-78
2021/07/16 06:27:41;;;;;;;43.20;23.90;;;16.00;99.90;;;;;;4932028;28;20273;-78
2021/07/16 06:30:10;;;;;;;40.72;22.67;;;16.10;99.90;;;;;;4948550;28;20051;-78
2021/07/16 06:32:37;;;;;;;45.35;25.20;;;16.00;99.90;;;;;;4932332;28;20070;-78
2021/07/16 06:35:07;;;;;;;50.08;26.38;;;16.00;99.90;;;;;;4944101;28;20062;-79
2021/07/16 06:37:35;;;;;;;41.35;23.83;;;15.90;99.90;;;;;;4944326;28;20051;-79
2021/07/16 06:40:03;;;;;;;45.95;26.30;;;16.00;99.90;;;;;;4930328;28;20382;-79
2021/07/16 06:42:31;;;;;;;50.65;26.77;;;16.00;99.90;;;;;;4941784;28;20051;-79
2021/07/16 06:44:58;;;;;;;47.58;27.30;;;15.90;99.90;;;;;;4928671;29;20106;-78
2021/07/16 06:47:25;;;;;;;47.03;25.88;;;15.90;99.90;;;;;;4926702;29;20047;-79
2021/07/16 06:49:52;;;;;;;40.13;24.08;;;16.00;99.90;;;;;;4943803;28;20074;-79
2021/07/16 06:52:19;;;;;;;47.35;22.73;;;15.80;99.90;;;;;;4947227;28;20052;-78
2021/07/16 06:54:46;;;;;;;48.90;25.08;;;15.80;99.90;;;;;;4926677;28;20067;-79
2021/07/16 06:57:13;;;;;;;45.00;25.35;;;15.80;99.90;;;;;;4963795;28;20039;-78
2021/07/16 06:59:40;;;;;;;46.03;24.77;;;15.80;99.90;;;;;;4964113;28;20055;-79
2021/07/16 07:02:07;;;;;;;39.95;22.92;;;15.60;99.90;;;;;;4946825;28;20387;-79
2021/07/16 07:04:35;;;;;;;46.70;25.77;;;15.60;99.90;;;;;;4932730;28;20423;-79
2021/07/16 07:07:02;;;;;;;40.55;23.55;;;15.60;99.90;;;;;;4963212;28;20070;-79
2021/07/16 07:09:29;;;;;;;48.42;24.63;;;15.70;99.90;;;;;;4963330;28;20045;-78
2021/07/16 07:11:56;;;;;;;45.60;24.67;;;15.80;99.90;;;;;;4922799;28;20428;-79
2021/07/16 07:14:23;;;;;;;42.60;23.98;;;15.70;99.90;;;;;;4957464;28;20074;-79
2021/07/16 07:16:50;;;;;;;44.17;24.45;;;15.80;99.90;;;;;;4950157;28;20134;-79
2021/07/16 07:19:17;;;;;;;38.85;21.45;;;15.80;99.90;;;;;;4928880;29;20126;-78
2021/07/16 07:21:44;;;;;;;36.90;21.67;;;15.80;99.90;;;;;;4932937;28;20121;-78
2021/07/16 07:24:11;;;;;;;33.08;18.60;;;16.00;99.90;;;;;;4952997;28;20221;-79
2021/07/16 07:26:38;;;;;;;28.52;18.20;;;15.90;99.90;;;;;;4943784;28;20050;-78
2021/07/16 07:29:05;;;;;;;31.30;18.13;;;15.90;99.90;;;;;;4959941;28;20085;-78
2021/07/16 07:31:32;;;;;;;27.02;19.23;;;16.00;99.90;;;;;;4961511;28;20065;-79
2021/07/16 07:33:59;;;;;;;29.90;18.60;;;16.20;99.90;;;;;;4956410;28;20054;-77
2021/07/16 07:36:28;;;;;;;34.10;21.40;;;16.20;99.90;;;;;;4931664;28;20522;-78
2021/07/16 07:38:55;;;;;;;32.50;19.23;;;16.30;99.90;;;;;;4945036;28;20429;-78
2021/07/16 07:41:23;;;;;;;27.75;17.65;;;16.40;99.90;;;;;;4927641;29;20140;-77
2021/07/16 07:43:53;;;;;;;38.10;20.83;;;16.30;99.90;;;;;;4925786;28;20061;-78
2021/07/16 07:46:20;;;;;;;36.60;21.70;;;16.30;99.90;;;;;;4943809;28;20057;-78
2021/07/16 07:48:47;;;;;;;30.42;18.63;;;16.30;99.90;;;;;;4944281;29;20243;-78
2021/07/16 07:51:14;;;;;;;36.67;20.33;;;16.30;99.90;;;;;;4943899;28;20146;-78
2021/07/16 07:53:41;;;;;;;25.63;17.88;;;16.40;99.90;;;;;;4939880;28;20599;-77
2021/07/16 07:56:27;;;;;;;33.08;19.40;;;16.40;99.90;;;;;;4946085;28;20142;-77
2021/07/16 07:58:54;;;;;;;28.48;17.35;;;16.40;99.90;;;;;;4963419;28;20247;-78
2021/07/16 08:01:21;;;;;;;33.65;20.10;;;16.30;99.90;;;;;;4967309;28;20051;-78
2021/07/16 08:03:48;;;;;;;29.83;18.85;;;16.40;99.90;;;;;;4954448;28;20100;-83
2021/07/16 08:06:16;;;;;;;27.88;17.75;;;16.50;99.90;;;;;;4952916;28;20151;-82
2021/07/16 08:08:43;;;;;;;31.77;18.63;;;16.40;99.90;;;;;;4953193;28;20279;-83
2021/07/16 08:11:10;;;;;;;31.23;19.95;;;16.50;99.90;;;;;;4969962;28;20059;-78
2021/07/16 08:13:37;;;;;;;33.55;19.90;;;16.60;99.90;;;;;;4953235;28;20065;-84
2021/07/16 08:16:05;;;;;;;31.17;19.90;;;16.60;99.90;;;;;;4948696;28;20035;-83
2021/07/16 08:18:32;;;;;;;30.88;19.88;;;16.60;99.90;;;;;;4935549;29;20126;-82
2021/07/16 08:20:59;;;;;;;31.83;18.58;;;16.60;99.90;;;;;;4920088;29;20109;-85
2021/07/16 08:23:26;;;;;;;31.75;19.70;;;16.60;99.90;;;;;;4950616;28;20067;-82
2021/07/16 08:25:54;;;;;;;35.85;21.10;;;16.80;99.90;;;;;;4923148;28;20323;-83
2021/07/16 08:28:21;;;;;;;40.58;21.83;;;16.80;99.90;;;;;;4969948;28;20070;-84
2021/07/16 08:30:48;;;;;;;35.05;19.63;;;16.90;99.90;;;;;;4954079;28;20057;-84
2021/07/16 08:33:15;;;;;;;38.83;21.80;;;16.60;99.90;;;;;;4955006;28;20137;-82
2021/07/16 08:35:43;;;;;;;37.63;23.02;;;16.50;99.90;;;;;;4936790;28;20059;-85
2021/07/16 08:38:10;;;;;;;39.55;21.85;;;16.50;99.90;;;;;;4933633;29;20059;-79
2021/07/16 08:40:37;;;;;;;36.70;22.42;;;16.50;99.90;;;;;;4931913;29;20059;-79
2021/07/16 08:43:05;;;;;;;34.42;20.65;;;16.60;99.90;;;;;;4931879;29;20161;-79
2021/07/16 08:45:32;;;;;;;31.38;20.75;;;16.70;99.90;;;;;;4929593;28;20121;-80
2021/07/16 08:48:01;;;;;;;32.67;21.25;;;16.70;99.90;;;;;;4963219;28;20039;-79
2021/07/16 08:50:30;;;;;;;42.75;21.38;;;16.60;99.90;;;;;;4944259;28;20115;-78
2021/07/16 08:53:02;;;;;;;37.45;23.13;;;16.60;99.90;;;;;;4947878;29;20064;-79
2021/07/16 08:55:35;;;;;;;40.95;22.73;;;16.60;99.90;;;;;;4939806;28;20093;-80
2021/07/16 08:58:04;;;;;;;40.10;22.20;;;16.60;99.90;;;;;;4966516;28;20731;-79
2021/07/16 09:00:32;;;;;;;44.72;24.33;;;16.60;99.90;;;;;;4965779;28;20062;-79
2021/07/16 09:03:00;;;;;;;44.33;24.70;;;16.80;99.90;;;;;;4958356;28;20043;-78
2021/07/16 09:05:40;;;;;;;44.90;26.15;;;16.90;99.90;;;;;;4937223;28;20093;-78
2021/07/16 09:08:13;;;;;;;50.47;26.40;;;17.00;99.90;;;;;;4935485;28;20197;-78
2021/07/16 09:10:45;;;;;;;49.35;26.98;;;16.90;99.90;;;;;;4935435;28;20547;-78
2021/07/16 09:13:12;;;;;;;44.60;24.42;;;16.90;99.90;;;;;;4965405;28;20055;-78
2021/07/16 09:15:44;;;;;;;52.28;26.40;;;16.80;99.90;;;;;;4945377;28;20074;-79
2021/07/16 09:18:21;;;;;;;47.42;27.20;;;16.80;99.90;;;;;;4932614;29;20148;-78
2021/07/16 09:21:04;;;;;;;48.65;26.38;;;16.90;99.90;;;;;;4915966;29;20587;-78
2021/07/16 09:23:39;;;;;;;45.65;25.25;;;17.10;99.90;;;;;;4949511;28;20117;-78
2021/07/16 09:26:26;;;;;;;41.95;25.42;;;17.20;99.90;;;;;;4941058;28;20069;-78
2021/07/16 09:28:55;;;;;;;49.58;25.83;;;17.30;99.90;;;;;;4969127;28;20202;-78
2021/07/16 09:31:25;;;;;;;44.13;23.90;;;17.20;99.90;;;;;;4956565;28;20099;-79
2021/07/16 09:33:59;;;;;;;44.05;24.25;;;17.30;99.90;;;;;;4931795;29;20061;-78
2021/07/16 09:36:27;;;;;;;38.03;23.15;;;17.30;99.90;;;;;;4952518;28;20046;-79
2021/07/16 09:39:18;;;;;;;36.28;22.30;;;17.30;99.90;;;;;;4968252;28;20188;-78
2021/07/16 09:41:54;;;;;;;37.63;22.85;;;17.30;99.90;;;;;;4949683;28;20066;-79
2021/07/16 09:44:38;;;;;;;44.00;25.63;;;17.40;99.90;;;;;;4928228;29;20058;-79
2021/07/16 09:47:10;;;;;;;47.55;23.67;;;17.50;99.90;;;;;;4956675;28;20043;-79
2021/07/16 09:49:37;;;;;;;40.67;24.58;;;17.50;99.90;;;;;;4965177;28;20078;-78
2021/07/16 09:52:20;;;;;;;43.03;24.70;;;17.50;99.90;;;;;;4950228;28;20271;-79
2021/07/16 09:55:05;;;;;;;37.75;22.60;;;17.50;99.90;;;;;;4933631;28;20039;-79
2021/07/16 09:57:41;;;;;;;43.83;23.02;;;17.60;99.90;;;;;;4970340;28;20062;-78
2021/07/16 10:00:22;;;;;;;38.53;20.90;;;17.40;99.90;;;;;;4951518;28;20149;-78
2021/07/16 10:02:52;;;;;;;39.78;22.98;;;17.30;99.90;;;;;;4935859;28;20163;-78
2021/07/16 10:05:20;;;;;;;37.55;20.70;;;17.50;99.90;;;;;;4946485;28;20427;-77
2021/07/16 10:07:47;;;;;;;34.22;21.58;;;17.60;99.90;;;;;;4930578;28;20065;-77
2021/07/16 10:10:19;;;;;;;40.50;20.65;;;17.70;99.90;;;;;;4978955;28;20059;-78
2021/07/16 10:12:48;;;;;;;35.05;20.77;;;17.60;99.90;;;;;;4931214;29;20321;-78
2021/07/16 10:15:17;;;;;;;35.25;20.40;;;17.70;99.90;;;;;;4944896;28;20114;-78
2021/07/16 10:17:44;;;;;;;37.88;21.67;;;17.80;99.90;;;;;;4948379;28;20616;-78
2021/07/16 10:20:17;;;;;;;37.50;21.20;;;18.00;99.90;;;;;;4945584;28;20301;-78
2021/07/16 10:22:46;;;;;;;36.38;20.23;;;18.10;99.90;;;;;;4947787;28;20062;-78
2021/07/16 10:25:18;;;;;;;35.97;20.85;;;18.20;99.90;;;;;;4949409;28;20058;-77
2021/07/16 10:27:45;;;;;;;34.92;21.25;;;18.30;99.90;;;;;;4948063;28;20054;-78
2021/07/16 10:30:14;;;;;;;35.90;21.48;;;18.10;99.90;;;;;;4949385;28;20515;-77
2021/07/16 10:32:52;;;;;;;41.10;21.75;;;18.00;99.90;;;;;;4949515;28;20051;-78
2021/07/16 10:35:19;;;;;;;34.85;20.77;;;17.90;99.90;;;;;;4945814;28;20063;-79
2021/07/16 10:37:47;;;;;;;38.55;22.75;;;17.90;99.90;;;;;;4930715;29;20057;-78
2021/07/16 10:40:44;;;;;;;48.55;24.52;;;17.80;99.90;;;;;;4929289;28;20507;-78
2021/07/16 10:43:23;;;;;;;47.58;23.05;;;17.80;99.90;;;;;;4936870;28;20046;-78
2021/07/16 10:45:52;;;;;;;49.25;25.38;;;17.80;99.90;;;;;;4930007;28;20054;-79
2021/07/16 10:48:31;;;;;;;40.97;22.55;;;17.80;99.90;;;;;;4931070;29;20134;-77
2021/07/16 10:50:59;;;;;;;43.17;22.98;;;17.90;99.90;;;;;;4944640;28;20117;-78
2021/07/16 10:53:29;;;;;;;47.42;24.45;;;17.90;99.90;;;;;;4935630;28;20555;-77
2021/07/16 10:55:56;;;;;;;45.80;22.40;;;17.90;99.90;;;;;;4940754;28;20061;-78
2021/07/16 10:58:26;;;;;;;43.05;23.00;;;17.80;99.90;;;;;;4948922;28;20047;-77
2021/07/16 11:01:04;;;;;;;37.72;20.67;;;17.90;99.90;;;;;;4939779;28;20359;-78
2021/07/16 11:03:39;;;;;;;42.72;22.17;;;17.90;99.90;;;;;;4933425;28;20057;-78
2021/07/16 11:06:08;;;;;;;43.97;22.45;;;17.80;99.90;;;;;;4948733;28;20720;-78
2021/07/16 11:08:37;;;;;;;36.28;20.92;;;17.80;99.90;;;;;;4933309;28;20057;-78
2021/07/16 11:11:07;;;;;;;39.97;22.15;;;17.70;99.90;;;;;;4948589;28;20058;-79
2021/07/16 11:13:47;;;;;;;37.15;21.20;;;17.80;99.90;;;;;;4946540;28;20051;-78
2021/07/16 11:16:24;;;;;;;37.10;20.60;;;17.90;99.90;;;;;;4926359;28;20169;-78
2021/07/16 11:18:51;;;;;;;40.08;20.20;;;18.00;99.90;;;;;;4930079;29;20142;-78
2021/07/16 11:21:46;;;;;;;40.45;20.50;;;18.20;99.90;;;;;;4927765;28;20299;-79
2021/07/16 11:24:17;;;;;;;34.90;19.58;;;18.20;99.90;;;;;;4936442;28;20055;-79
2021/07/16 11:26:55;;;;;;;28.48;16.90;;;18.40;99.90;;;;;;4945618;28;20058;-78
2021/07/16 11:29:44;;;;;;;26.15;18.70;;;18.50;99.90;;;;;;4964991;28;20058;-78
2021/07/16 11:32:16;;;;;;;27.27;16.40;;;18.70;99.90;;;;;;4964965;28;20134;-78
2021/07/16 11:34:50;;;;;;;27.75;17.85;;;18.60;99.90;;;;;;4934330;28;20372;-78
2021/07/16 11:37:27;;;;;;;34.23;17.77;;;18.60;99.90;;;;;;4932952;29;20051;-78
2021/07/16 11:40:09;;;;;;;28.45;17.88;;;18.50;99.90;;;;;;4933590;28;20077;-79
2021/07/16 11:42:39;;;;;;;29.60;18.60;;;18.30;99.90;;;;;;4949607;28;20069;-78
2021/07/16 11:45:10;;;;;;;28.98;17.92;;;18.30;99.90;;;;;;4936867;28;20141;-78
2021/07/16 11:47:38;;;;;;;27.95;19.13;;;18.10;99.90;;;;;;4934360;28;20514;-79
2021/07/16 11:50:11;;;;;;;29.90;18.40;;;18.00;99.90;;;;;;4951978;28;20077;-79
2021/07/16 11:52:41;;;;;;;38.30;19.50;;;17.90;99.90;;;;;;4952102;28;20489;-78
2021/07/16 11:55:13;;;;;;;33.88;20.05;;;18.10;99.90;;;;;;4966793;28;20057;-78
2021/07/16 11:57:47;;;;;;;41.65;19.73;;;18.10;99.90;;;;;;4947220;28;20098;-79
2021/07/16 12:00:15;;;;;;;39.38;20.33;;;18.10;99.90;;;;;;4918897;28;20523;-78
2021/07/16 12:02:42;;;;;;;34.03;19.83;;;18.10;99.90;;;;;;4948703;28;20043;-78
2021/07/16 12:05:11;;;;;;;29.52;20.23;;;18.30;99.90;;;;;;4931848;28;20051;-78
2021/07/16 12:07:40;;;;;;;41.20;20.42;;;18.30;99.90;;;;;;4929622;29;20051;-79
2021/07/16 12:10:16;;;;;;;32.92;20.45;;;18.40;99.90;;;;;;4937341;28;20082;-78
2021/07/16 12:12:44;;;;;;;43.08;22.92;;;18.40;99.90;;;;;;4967910;28;20093;-78
2021/07/16 12:15:15;;;;;;;32.30;20.67;;;18.50;99.90;;;;;;4967939;28;20055;-79
2021/07/16 12:18:01;;;;;;;41.42;23.25;;;18.50;99.90;;;;;;4931353;28;20047;-79
2021/07/16 12:20:33;;;;;;;39.25;22.60;;;18.50;99.90;;;;;;4949139;28;20449;-79
2021/07/16 12:23:07;;;;;;;45.10;25.27;;;18.60;99.90;;;;;;4934119;28;20520;-79
2021/07/16 12:25:35;;;;;;;39.22;24.63;;;18.50;99.90;;;;;;4940314;28;20590;-78
2021/07/16 12:28:07;;;;;;;48.80;26.65;;;18.50;99.90;;;;;;4951854;28;20089;-78
2021/07/16 12:30:35;;;;;;;45.47;26.83;;;18.50;99.90;;;;;;4951442;28;20507;-78
2021/07/16 12:33:04;;;;;;;51.78;28.08;;;18.40;99.90;;;;;;4965783;28;20051;-78
2021/07/16 12:35:35;;;;;;;48.72;27.65;;;18.30;99.90;;;;;;4945401;28;20047;-78
2021/07/16 12:38:14;;;;;;;40.05;26.42;;;18.30;99.90;;;;;;4942143;28;20644;-78